sensor_id;sensor_type;location;lat;lon;timestamp;P1;durP1;ratioP1;P2;durP2;ratioP2
46054;SDS011;31788;6.954;-71.872;2023-02-27T00:02:16;27.52;;;8.38;;
46054;SDS011;31788;6.954;-71.872;2023-02-27T00:04:42;18.77;;;7.50;;
46054;SDS011;31788;6.954;-71.872;2023-02-27T00:07:09;30.00;;;7.65;;
46054;SDS011;31788;6.954;-71.872;2023-02-27T00:09:36;16.25;;;7.78;;
46054;SDS011;31788;6.954;-71.872;2023-02-27T00:12:04;14.32;;;7.13;;
46054;SDS011;31788;6.954;-71.872;2023-02-27T00:14:32;18.60;;;7.80;;
46054;SDS011;31788;6.954;-71.872;2023-02-27T00:16:59;11.73;;;6.78;;
46054;SDS011;31788;6.954;-71.872;2023-02-27T00:19:25;15.77;;;6.77;;
46054;SDS011;31788;6.954;-71.872;2023-02-27T00:21:52;13.52;;;7.03;;
46054;SDS011;31788;6.954;-71.872;2023-02-27T00:24:18;14.02;;;6.65;;
46054;SDS011;31788;6.954;-71.872;2023-02-27T00:26:46;15.35;;;7.40;;
46054;SDS011;31788;6.954;-71.872;2023-02-27T00:29:13;10.10;;;6.53;;
46054;SDS011;31788;6.954;-71.872;2023-02-27T00:31:39;15.30;;;6.88;;
46054;SDS011;31788;6.954;-71.872;2023-02-27T00:34:06;11.73;;;6.63;;
46054;SDS011;31788;6.954;-71.872;2023-02-27T00:36:33;13.00;;;6.50;;
46054;SDS011;31788;6.954;-71.872;2023-02-27T00:38:59;12.07;;;6.50;;
46054;SDS011;31788;6.954;-71.872;2023-02-27T00:41:26;11.32;;;6.50;;
46054;SDS011;31788;6.954;-71.872;2023-02-27T00:43:52;9.77;;;6.97;;
46054;SDS011;31788;6.954;-71.872;2023-02-27T00:46:19;12.85;;;6.78;;
46054;SDS011;31788;6.954;-71.872;2023-02-27T00:48:46;12.17;;;6.80;;
46054;SDS011;31788;6.954;-71.872;2023-02-27T00:51:12;10.32;;;6.70;;
46054;SDS011;31788;6.954;-71.872;2023-02-27T00:53:39;14.32;;;7.07;;
46054;SDS011;31788;6.954;-71.872;2023-02-27T00:56:06;11.50;;;6.78;;
46054;SDS011;31788;6.954;-71.872;2023-02-27T00:58:32;12.85;;;6.85;;
46054;SDS011;31788;6.954;-71.872;2023-02-27T01:00:59;10.93;;;6.32;;
46054;SDS011;31788;6.954;-71.872;2023-02-27T01:03:26;11.30;;;6.50;;
46054;SDS011;31788;6.954;-71.872;2023-02-27T01:05:52;9.63;;;6.43;;
46054;SDS011;31788;6.954;-71.872;2023-02-27T01:08:19;11.43;;;6.27;;
46054;SDS011;31788;6.954;-71.872;2023-02-27T01:10:45;11.00;;;6.70;;
46054;SDS011;31788;6.954;-71.872;2023-02-27T01:13:12;11.68;;;6.32;;
46054;SDS011;31788;6.954;-71.872;2023-02-27T01:15:42;16.35;;;6.38;;
46054;SDS011;31788;6.954;-71.872;2023-02-27T01:18:08;11.40;;;6.15;;
46054;SDS011;31788;6.954;-71.872;2023-02-27T01:20:35;11.02;;;6.45;;
46054;SDS011;31788;6.954;-71.872;2023-02-27T01:23:02;11.10;;;6.00;;
46054;SDS011;31788;6.954;-71.872;2023-02-27T01:25:28;11.10;;;5.90;;
46054;SDS011;31788;6.954;-71.872;2023-02-27T01:27:55;13.03;;;5.97;;
46054;SDS011;31788;6.954;-71.872;2023-02-27T01:30:21;10.05;;;5.90;;
46054;SDS011;31788;6.954;-71.872;2023-02-27T01:32:48;12.43;;;6.00;;
46054;SDS011;31788;6.954;-71.872;2023-02-27T01:35:14;9.73;;;6.07;;
46054;SDS011;31788;6.954;-71.872;2023-02-27T01:37:42;11.20;;;5.93;;
46054;SDS011;31788;6.954;-71.872;2023-02-27T01:40:10;13.48;;;6.00;;
46054;SDS011;31788;6.954;-71.872;2023-02-27T01:42:37;11.90;;;6.05;;
46054;SDS011;31788;6.954;-71.872;2023-02-27T01:47:47;15.57;;;6.43;;
46054;SDS011;31788;6.954;-71.872;2023-02-27T01:50:17;12.25;;;5.70;;
46054;SDS011;31788;6.954;-71.872;2023-02-27T01:52:45;11.20;;;6.20;;
46054;SDS011;31788;6.954;-71.872;2023-02-27T01:55:19;10.48;;;5.72;;
46054;SDS011;31788;6.954;-71.872;2023-02-27T01:57:47;29.93;;;7.13;;
46054;SDS011;31788;6.954;-71.872;2023-02-27T02:00:15;15.38;;;5.95;;
46054;SDS011;31788;6.954;-71.872;2023-02-27T02:02:44;11.70;;;5.55;;
46054;SDS011;31788;6.954;-71.872;2023-02-27T02:05:20;10.85;;;5.22;;
46054;SDS011;31788;6.954;-71.872;2023-02-27T02:07:47;10.73;;;5.60;;
46054;SDS011;31788;6.954;-71.872;2023-02-27T02:10:15;28.23;;;7.70;;
46054;SDS011;31788;6.954;-71.872;2023-02-27T02:12:43;32.72;;;8.27;;
46054;SDS011;31788;6.954;-71.872;2023-02-27T02:15:11;44.20;;;8.23;;
46054;SDS011;31788;6.954;-71.872;2023-02-27T02:20:34;12.75;;;5.57;;
46054;SDS011;31788;6.954;-71.872;2023-02-27T02:26:15;12.65;;;5.95;;
46054;SDS011;31788;6.954;-71.872;2023-02-27T02:34:44;12.07;;;6.28;;
46054;SDS011;31788;6.954;-71.872;2023-02-27T02:46:26;10.03;;;5.70;;
46054;SDS011;31788;6.954;-71.872;2023-02-27T02:48:59;9.73;;;5.65;;
46054;SDS011;31788;6.954;-71.872;2023-02-27T02:52:00;8.65;;;5.50;;
46054;SDS011;31788;6.954;-71.872;2023-02-27T03:02:14;9.85;;;5.70;;
46054;SDS011;31788;6.954;-71.872;2023-02-27T03:04:52;8.35;;;6.03;;
46054;SDS011;31788;6.954;-71.872;2023-02-27T03:12:29;9.10;;;5.75;;
46054;SDS011;31788;6.954;-71.872;2023-02-27T03:15:00;10.68;;;6.40;;
46054;SDS011;31788;6.954;-71.872;2023-02-27T03:20:28;8.73;;;5.80;;
46054;SDS011;31788;6.954;-71.872;2023-02-27T03:23:11;8.38;;;5.50;;
46054;SDS011;31788;6.954;-71.872;2023-02-27T03:25:44;8.90;;;5.83;;
46054;SDS011;31788;6.954;-71.872;2023-02-27T03:28:14;9.25;;;5.85;;
46054;SDS011;31788;6.954;-71.872;2023-02-27T03:30:55;7.53;;;5.50;;
46054;SDS011;31788;6.954;-71.872;2023-02-27T03:33:43;8.50;;;5.70;;
46054;SDS011;31788;6.954;-71.872;2023-02-27T03:36:27;8.10;;;5.80;;
46054;SDS011;31788;6.954;-71.872;2023-02-27T03:39:05;9.38;;;5.90;;
46054;SDS011;31788;6.954;-71.872;2023-02-27T03:46:54;10.07;;;6.63;;
46054;SDS011;31788;6.954;-71.872;2023-02-27T03:49:21;9.40;;;6.75;;
46054;SDS011;31788;6.954;-71.872;2023-02-27T03:51:49;10.00;;;6.60;;
46054;SDS011;31788;6.954;-71.872;2023-02-27T03:54:18;9.25;;;7.43;;
46054;SDS011;31788;6.954;-71.872;2023-02-27T03:57:04;9.10;;;6.72;;
46054;SDS011;31788;6.954;-71.872;2023-02-27T03:59:32;10.18;;;6.93;;
46054;SDS011;31788;6.954;-71.872;2023-02-27T04:02:01;10.48;;;7.38;;
46054;SDS011;31788;6.954;-71.872;2023-02-27T04:04:29;10.40;;;7.18;;
46054;SDS011;31788;6.954;-71.872;2023-02-27T04:07:08;10.80;;;7.35;;
46054;SDS011;31788;6.954;-71.872;2023-02-27T04:19:05;14.57;;;10.10;;
46054;SDS011;31788;6.954;-71.872;2023-02-27T04:24:31;14.63;;;11.20;;
46054;SDS011;31788;6.954;-71.872;2023-02-27T04:34:45;13.90;;;11.07;;
46054;SDS011;31788;6.954;-71.872;2023-02-27T04:43:02;12.97;;;10.90;;
46054;SDS011;31788;6.954;-71.872;2023-02-27T04:45:31;14.93;;;11.07;;
46054;SDS011;31788;6.954;-71.872;2023-02-27T04:48:24;13.27;;;10.80;;
46054;SDS011;31788;6.954;-71.872;2023-02-27T04:50:56;14.50;;;10.97;;
46054;SDS011;31788;6.954;-71.872;2023-02-27T04:53:55;14.68;;;11.13;;
46054;SDS011;31788;6.954;-71.872;2023-02-27T04:56:33;13.43;;;10.65;;
46054;SDS011;31788;6.954;-71.872;2023-02-27T04:59:16;12.70;;;10.57;;
46054;SDS011;31788;6.954;-71.872;2023-02-27T05:04:29;14.77;;;10.85;;
46054;SDS011;31788;6.954;-71.872;2023-02-27T05:06:59;14.02;;;10.77;;
46054;SDS011;31788;6.954;-71.872;2023-02-27T05:17:48;15.10;;;11.10;;
46054;SDS011;31788;6.954;-71.872;2023-02-27T05:20:24;13.80;;;10.48;;
46054;SDS011;31788;6.954;-71.872;2023-02-27T05:23:06;13.32;;;10.13;;
46054;SDS011;31788;6.954;-71.872;2023-02-27T05:25:58;14.13;;;10.10;;
46054;SDS011;31788;6.954;-71.872;2023-02-27T05:28:35;12.23;;;9.93;;
46054;SDS011;31788;6.954;-71.872;2023-02-27T05:31:19;12.18;;;10.27;;
46054;SDS011;31788;6.954;-71.872;2023-02-27T05:34:12;13.18;;;9.63;;
46054;SDS011;31788;6.954;-71.872;2023-02-27T05:36:46;13.18;;;10.40;;
46054;SDS011;31788;6.954;-71.872;2023-02-27T05:39:20;12.07;;;9.82;;
46054;SDS011;31788;6.954;-71.872;2023-02-27T05:41:51;13.10;;;10.33;;
46054;SDS011;31788;6.954;-71.872;2023-02-27T05:44:24;12.00;;;9.90;;
46054;SDS011;31788;6.954;-71.872;2023-02-27T05:47:04;12.63;;;10.23;;
46054;SDS011;31788;6.954;-71.872;2023-02-27T05:49:40;12.60;;;10.15;;
46054;SDS011;31788;6.954;-71.872;2023-02-27T05:52:30;13.55;;;10.70;;
46054;SDS011;31788;6.954;-71.872;2023-02-27T06:00:22;14.30;;;11.10;;
46054;SDS011;31788;6.954;-71.872;2023-02-27T06:02:57;13.90;;;11.30;;
46054;SDS011;31788;6.954;-71.872;2023-02-27T06:05:24;14.80;;;11.32;;
46054;SDS011;31788;6.954;-71.872;2023-02-27T06:07:52;13.77;;;11.10;;
46054;SDS011;31788;6.954;-71.872;2023-02-27T06:10:19;14.50;;;11.60;;
46054;SDS011;31788;6.954;-71.872;2023-02-27T06:12:46;15.80;;;11.45;;
46054;SDS011;31788;6.954;-71.872;2023-02-27T06:15:13;15.55;;;12.10;;
46054;SDS011;31788;6.954;-71.872;2023-02-27T06:17:41;14.27;;;11.30;;
46054;SDS011;31788;6.954;-71.872;2023-02-27T06:20:08;14.98;;;11.68;;
46054;SDS011;31788;6.954;-71.872;2023-02-27T06:22:35;18.10;;;12.27;;
46054;SDS011;31788;6.954;-71.872;2023-02-27T06:25:02;15.98;;;12.07;;
46054;SDS011;31788;6.954;-71.872;2023-02-27T06:27:29;14.43;;;11.27;;
46054;SDS011;31788;6.954;-71.872;2023-02-27T06:29:55;14.87;;;11.40;;
46054;SDS011;31788;6.954;-71.872;2023-02-27T06:32:22;14.30;;;11.88;;
46054;SDS011;31788;6.954;-71.872;2023-02-27T06:34:50;15.55;;;11.40;;
46054;SDS011;31788;6.954;-71.872;2023-02-27T06:37:17;14.27;;;11.70;;
46054;SDS011;31788;6.954;-71.872;2023-02-27T06:39:44;15.20;;;11.77;;
46054;SDS011;31788;6.954;-71.872;2023-02-27T06:42:10;16.13;;;11.60;;
46054;SDS011;31788;6.954;-71.872;2023-02-27T06:44:37;15.03;;;11.60;;
46054;SDS011;31788;6.954;-71.872;2023-02-27T06:47:03;15.77;;;11.23;;
46054;SDS011;31788;6.954;-71.872;2023-02-27T06:49:30;22.50;;;11.90;;
46054;SDS011;31788;6.954;-71.872;2023-02-27T06:51:57;15.07;;;11.40;;
46054;SDS011;31788;6.954;-71.872;2023-02-27T06:54:23;13.77;;;11.27;;
46054;SDS011;31788;6.954;-71.872;2023-02-27T06:56:50;15.37;;;11.40;;
46054;SDS011;31788;6.954;-71.872;2023-02-27T06:59:16;15.18;;;11.25;;
46054;SDS011;31788;6.954;-71.872;2023-02-27T07:01:43;14.55;;;11.07;;
46054;SDS011;31788;6.954;-71.872;2023-02-27T07:04:12;13.63;;;11.05;;
46054;SDS011;31788;6.954;-71.872;2023-02-27T07:06:40;15.25;;;11.93;;
46054;SDS011;31788;6.954;-71.872;2023-02-27T07:09:07;14.20;;;11.47;;
46054;SDS011;31788;6.954;-71.872;2023-02-27T07:11:34;13.43;;;11.30;;
46054;SDS011;31788;6.954;-71.872;2023-02-27T07:14:00;15.30;;;11.20;;
46054;SDS011;31788;6.954;-71.872;2023-02-27T07:16:27;13.18;;;11.38;;
46054;SDS011;31788;6.954;-71.872;2023-02-27T07:18:53;13.18;;;11.02;;
46054;SDS011;31788;6.954;-71.872;2023-02-27T07:21:20;14.48;;;11.50;;
46054;SDS011;31788;6.954;-71.872;2023-02-27T07:23:47;14.50;;;11.60;;
46054;SDS011;31788;6.954;-71.872;2023-02-27T07:26:13;14.03;;;11.23;;
46054;SDS011;31788;6.954;-71.872;2023-02-27T07:28:40;14.30;;;11.15;;
46054;SDS011;31788;6.954;-71.872;2023-02-27T07:31:06;14.68;;;11.23;;
46054;SDS011;31788;6.954;-71.872;2023-02-27T07:33:33;13.87;;;11.17;;
46054;SDS011;31788;6.954;-71.872;2023-02-27T07:36:00;14.38;;;11.73;;
46054;SDS011;31788;6.954;-71.872;2023-02-27T07:38:26;13.23;;;10.82;;
46054;SDS011;31788;6.954;-71.872;2023-02-27T07:40:53;13.30;;;11.25;;
46054;SDS011;31788;6.954;-71.872;2023-02-27T07:43:19;14.30;;;11.10;;
46054;SDS011;31788;6.954;-71.872;2023-02-27T07:45:46;14.43;;;10.27;;
46054;SDS011;31788;6.954;-71.872;2023-02-27T07:48:15;14.05;;;10.32;;
46054;SDS011;31788;6.954;-71.872;2023-02-27T07:50:42;11.77;;;9.43;;
46054;SDS011;31788;6.954;-71.872;2023-02-27T07:53:09;12.52;;;9.23;;
46054;SDS011;31788;6.954;-71.872;2023-02-27T07:55:37;11.60;;;8.70;;
46054;SDS011;31788;6.954;-71.872;2023-02-27T07:58:04;11.37;;;8.37;;
46054;SDS011;31788;6.954;-71.872;2023-02-27T08:00:31;10.57;;;8.35;;
46054;SDS011;31788;6.954;-71.872;2023-02-27T08:02:57;10.37;;;8.27;;
46054;SDS011;31788;6.954;-71.872;2023-02-27T08:05:24;9.73;;;7.38;;
46054;SDS011;31788;6.954;-71.872;2023-02-27T08:07:51;10.23;;;7.63;;
46054;SDS011;31788;6.954;-71.872;2023-02-27T08:10:18;10.02;;;7.75;;
46054;SDS011;31788;6.954;-71.872;2023-02-27T08:12:44;9.52;;;7.35;;
46054;SDS011;31788;6.954;-71.872;2023-02-27T08:15:11;9.05;;;7.68;;
46054;SDS011;31788;6.954;-71.872;2023-02-27T08:17:38;10.30;;;7.20;;
46054;SDS011;31788;6.954;-71.872;2023-02-27T08:20:05;9.18;;;7.05;;
46054;SDS011;31788;6.954;-71.872;2023-02-27T08:22:32;10.52;;;7.40;;
46054;SDS011;31788;6.954;-71.872;2023-02-27T08:24:58;8.03;;;6.70;;
46054;SDS011;31788;6.954;-71.872;2023-02-27T08:27:25;8.68;;;6.60;;
46054;SDS011;31788;6.954;-71.872;2023-02-27T08:29:52;7.72;;;6.30;;
46054;SDS011;31788;6.954;-71.872;2023-02-27T08:32:18;7.95;;;6.40;;
46054;SDS011;31788;6.954;-71.872;2023-02-27T08:34:45;8.10;;;6.50;;
46054;SDS011;31788;6.954;-71.872;2023-02-27T08:37:11;7.85;;;6.50;;
46054;SDS011;31788;6.954;-71.872;2023-02-27T08:39:38;7.65;;;6.10;;
46054;SDS011;31788;6.954;-71.872;2023-02-27T08:42:04;7.05;;;6.00;;
46054;SDS011;31788;6.954;-71.872;2023-02-27T08:44:31;7.20;;;5.88;;
46054;SDS011;31788;6.954;-71.872;2023-02-27T08:46:58;13.02;;;6.45;;
46054;SDS011;31788;6.954;-71.872;2023-02-27T08:49:25;7.65;;;6.30;;
46054;SDS011;31788;6.954;-71.872;2023-02-27T08:51:52;9.63;;;6.30;;
46054;SDS011;31788;6.954;-71.872;2023-02-27T08:54:18;9.07;;;6.60;;
46054;SDS011;31788;6.954;-71.872;2023-02-27T08:56:45;9.83;;;7.07;;
46054;SDS011;31788;6.954;-71.872;2023-02-27T08:59:12;8.65;;;6.95;;
46054;SDS011;31788;6.954;-71.872;2023-02-27T09:01:39;12.60;;;7.82;;
46054;SDS011;31788;6.954;-71.872;2023-02-27T09:04:06;9.73;;;7.90;;
46054;SDS011;31788;6.954;-71.872;2023-02-27T09:06:34;9.18;;;7.85;;
46054;SDS011;31788;6.954;-71.872;2023-02-27T09:09:02;11.13;;;7.83;;
46054;SDS011;31788;6.954;-71.872;2023-02-27T09:11:29;10.20;;;8.48;;
46054;SDS011;31788;6.954;-71.872;2023-02-27T09:13:56;12.80;;;9.00;;
46054;SDS011;31788;6.954;-71.872;2023-02-27T09:16:23;12.82;;;9.70;;
46054;SDS011;31788;6.954;-71.872;2023-02-27T09:18:49;11.05;;;8.88;;
46054;SDS011;31788;6.954;-71.872;2023-02-27T09:21:17;12.27;;;9.27;;
46054;SDS011;31788;6.954;-71.872;2023-02-27T09:23:44;13.98;;;10.30;;
46054;SDS011;31788;6.954;-71.872;2023-02-27T09:26:11;12.17;;;9.77;;
46054;SDS011;31788;6.954;-71.872;2023-02-27T09:28:37;12.65;;;10.23;;
46054;SDS011;31788;6.954;-71.872;2023-02-27T09:31:07;12.93;;;9.80;;
46054;SDS011;31788;6.954;-71.872;2023-02-27T09:33:35;12.20;;;10.60;;
46054;SDS011;31788;6.954;-71.872;2023-02-27T09:36:03;15.73;;;10.45;;
46054;SDS011;31788;6.954;-71.872;2023-02-27T09:38:31;19.00;;;10.48;;
46054;SDS011;31788;6.954;-71.872;2023-02-27T09:40:59;16.30;;;9.70;;
46054;SDS011;31788;6.954;-71.872;2023-02-27T09:46:08;17.13;;;10.23;;
46054;SDS011;31788;6.954;-71.872;2023-02-27T09:48:44;15.15;;;9.65;;
46054;SDS011;31788;6.954;-71.872;2023-02-27T09:51:15;13.93;;;9.90;;
46054;SDS011;31788;6.954;-71.872;2023-02-27T09:53:47;14.13;;;10.70;;
46054;SDS011;31788;6.954;-71.872;2023-02-27T10:01:39;14.88;;;11.63;;
46054;SDS011;31788;6.954;-71.872;2023-02-27T10:10:02;15.68;;;11.95;;
46054;SDS011;31788;6.954;-71.872;2023-02-27T10:15:34;14.77;;;11.90;;
46054;SDS011;31788;6.954;-71.872;2023-02-27T10:18:09;17.75;;;12.93;;
46054;SDS011;31788;6.954;-71.872;2023-02-27T10:20:42;16.05;;;12.63;;
46054;SDS011;31788;6.954;-71.872;2023-02-27T10:23:16;15.77;;;12.63;;
46054;SDS011;31788;6.954;-71.872;2023-02-27T10:25:47;17.33;;;12.55;;
46054;SDS011;31788;6.954;-71.872;2023-02-27T10:28:17;17.63;;;12.73;;
46054;SDS011;31788;6.954;-71.872;2023-02-27T10:30:54;20.98;;;12.73;;
46054;SDS011;31788;6.954;-71.872;2023-02-27T10:33:57;19.27;;;12.53;;
46054;SDS011;31788;6.954;-71.872;2023-02-27T10:36:17;17.00;;;11.70;;
46054;SDS011;31788;6.954;-71.872;2023-02-27T10:38:50;13.57;;;11.10;;
46054;SDS011;31788;6.954;-71.872;2023-02-27T10:41:45;22.53;;;11.63;;
46054;SDS011;31788;6.954;-71.872;2023-02-27T10:44:14;15.57;;;11.20;;
46054;SDS011;31788;6.954;-71.872;2023-02-27T10:46:45;18.08;;;12.05;;
46054;SDS011;31788;6.954;-71.872;2023-02-27T10:49:17;16.75;;;11.43;;
46054;SDS011;31788;6.954;-71.872;2023-02-27T10:51:46;22.03;;;13.27;;
46054;SDS011;31788;6.954;-71.872;2023-02-27T10:54:33;18.35;;;11.70;;
46054;SDS011;31788;6.954;-71.872;2023-02-27T10:57:00;18.87;;;12.17;;
46054;SDS011;31788;6.954;-71.872;2023-02-27T10:59:34;18.17;;;11.95;;
46054;SDS011;31788;6.954;-71.872;2023-02-27T11:04:45;19.92;;;12.50;;
46054;SDS011;31788;6.954;-71.872;2023-02-27T11:07:28;21.92;;;13.15;;
46054;SDS011;31788;6.954;-71.872;2023-02-27T11:10:14;18.90;;;12.48;;
46054;SDS011;31788;6.954;-71.872;2023-02-27T11:15:25;20.50;;;12.77;;
46054;SDS011;31788;6.954;-71.872;2023-02-27T11:17:54;21.52;;;12.20;;
46054;SDS011;31788;6.954;-71.872;2023-02-27T11:20:40;20.23;;;12.68;;
46054;SDS011;31788;6.954;-71.872;2023-02-27T11:25:42;19.17;;;12.98;;
46054;SDS011;31788;6.954;-71.872;2023-02-27T11:31:04;25.20;;;14.25;;
46054;SDS011;31788;6.954;-71.872;2023-02-27T11:33:54;26.73;;;14.30;;
46054;SDS011;31788;6.954;-71.872;2023-02-27T11:41:57;39.40;;;15.18;;
46054;SDS011;31788;6.954;-71.872;2023-02-27T11:45:01;41.83;;;25.75;;
46054;SDS011;31788;6.954;-71.872;2023-02-27T11:47:53;35.55;;;27.85;;
46054;SDS011;31788;6.954;-71.872;2023-02-27T12:09:44;26.27;;;16.15;;
46054;SDS011;31788;6.954;-71.872;2023-02-27T12:12:22;25.65;;;16.10;;
46054;SDS011;31788;6.954;-71.872;2023-02-27T12:15:09;27.88;;;16.05;;
46054;SDS011;31788;6.954;-71.872;2023-02-27T12:20:48;27.73;;;17.02;;
46054;SDS011;31788;6.954;-71.872;2023-02-27T12:26:22;30.35;;;16.27;;
46054;SDS011;31788;6.954;-71.872;2023-02-27T12:32:02;23.35;;;14.98;;
46054;SDS011;31788;6.954;-71.872;2023-02-27T12:37:44;21.98;;;14.88;;
46054;SDS011;31788;6.954;-71.872;2023-02-27T12:40:13;25.80;;;15.82;;
46054;SDS011;31788;6.954;-71.872;2023-02-27T12:48:13;27.52;;;15.02;;
46054;SDS011;31788;6.954;-71.872;2023-02-27T12:50:53;22.17;;;14.00;;
46054;SDS011;31788;6.954;-71.872;2023-02-27T12:56:08;23.63;;;14.13;;
46054;SDS011;31788;6.954;-71.872;2023-02-27T13:10:01;20.02;;;13.82;;
46054;SDS011;31788;6.954;-71.872;2023-02-27T13:12:40;22.60;;;13.80;;
46054;SDS011;31788;6.954;-71.872;2023-02-27T13:15:30;22.80;;;13.40;;
46054;SDS011;31788;6.954;-71.872;2023-02-27T13:18:53;25.27;;;12.98;;
46054;SDS011;31788;6.954;-71.872;2023-02-27T13:21:07;26.85;;;13.77;;
46054;SDS011;31788;6.954;-71.872;2023-02-27T13:23:42;32.93;;;14.13;;
46054;SDS011;31788;6.954;-71.872;2023-02-27T13:26:21;22.50;;;13.50;;
46054;SDS011;31788;6.954;-71.872;2023-02-27T13:28:55;32.58;;;14.55;;
46054;SDS011;31788;6.954;-71.872;2023-02-27T13:37:19;41.45;;;16.02;;
46054;SDS011;31788;6.954;-71.872;2023-02-27T13:44:58;38.22;;;15.00;;
46054;SDS011;31788;6.954;-71.872;2023-02-27T13:50:00;34.33;;;14.45;;
46054;SDS011;31788;6.954;-71.872;2023-02-27T13:52:33;31.77;;;15.07;;
46054;SDS011;31788;6.954;-71.872;2023-02-27T13:55:01;29.75;;;14.40;;
46054;SDS011;31788;6.954;-71.872;2023-02-27T13:57:32;31.85;;;13.73;;
46054;SDS011;31788;6.954;-71.872;2023-02-27T14:00:17;32.10;;;15.17;;
46054;SDS011;31788;6.954;-71.872;2023-02-27T14:02:53;40.30;;;15.80;;
46054;SDS011;31788;6.954;-71.872;2023-02-27T14:07:58;33.25;;;13.52;;
46054;SDS011;31788;6.954;-71.872;2023-02-27T14:10:58;29.63;;;13.07;;
46054;SDS011;31788;6.954;-71.872;2023-02-27T14:24:55;21.00;;;10.13;;
46054;SDS011;31788;6.954;-71.872;2023-02-27T14:30:55;15.13;;;9.57;;
46054;SDS011;31788;6.954;-71.872;2023-02-27T14:33:16;17.13;;;9.57;;
46054;SDS011;31788;6.954;-71.872;2023-02-27T14:35:51;17.75;;;9.65;;
46054;SDS011;31788;6.954;-71.872;2023-02-27T14:38:29;18.13;;;9.75;;
46054;SDS011;31788;6.954;-71.872;2023-02-27T14:43:42;17.17;;;9.38;;
46054;SDS011;31788;6.954;-71.872;2023-02-27T14:46:11;23.00;;;9.50;;
46054;SDS011;31788;6.954;-71.872;2023-02-27T14:48:46;24.33;;;10.05;;
46054;SDS011;31788;6.954;-71.872;2023-02-27T14:51:16;15.75;;;9.60;;
46054;SDS011;31788;6.954;-71.872;2023-02-27T14:53:43;18.45;;;9.38;;
46054;SDS011;31788;6.954;-71.872;2023-02-27T14:56:16;16.45;;;9.20;;
46054;SDS011;31788;6.954;-71.872;2023-02-27T14:58:47;21.60;;;9.45;;
46054;SDS011;31788;6.954;-71.872;2023-02-27T15:01:14;15.90;;;9.32;;
46054;SDS011;31788;6.954;-71.872;2023-02-27T15:03:46;19.77;;;10.00;;
46054;SDS011;31788;6.954;-71.872;2023-02-27T15:06:18;30.10;;;10.40;;
46054;SDS011;31788;6.954;-71.872;2023-02-27T15:09:00;39.60;;;11.63;;
46054;SDS011;31788;6.954;-71.872;2023-02-27T15:11:27;32.75;;;12.40;;
46054;SDS011;31788;6.954;-71.872;2023-02-27T15:13:56;36.70;;;14.30;;
46054;SDS011;31788;6.954;-71.872;2023-02-27T15:16:29;33.07;;;14.17;;
46054;SDS011;31788;6.954;-71.872;2023-02-27T15:21:41;30.13;;;13.93;;
46054;SDS011;31788;6.954;-71.872;2023-02-27T15:24:21;29.70;;;13.75;;
46054;SDS011;31788;6.954;-71.872;2023-02-27T15:26:58;24.27;;;12.45;;
46054;SDS011;31788;6.954;-71.872;2023-02-27T15:29:42;22.45;;;12.32;;
46054;SDS011;31788;6.954;-71.872;2023-02-27T15:34:59;23.15;;;11.85;;
46054;SDS011;31788;6.954;-71.872;2023-02-27T15:37:30;23.50;;;11.13;;
46054;SDS011;31788;6.954;-71.872;2023-02-27T15:39:58;20.50;;;10.65;;
46054;SDS011;31788;6.954;-71.872;2023-02-27T15:42:27;18.83;;;10.07;;
46054;SDS011;31788;6.954;-71.872;2023-02-27T15:45:03;18.48;;;9.85;;
46054;SDS011;31788;6.954;-71.872;2023-02-27T15:47:31;16.13;;;9.55;;
46054;SDS011;31788;6.954;-71.872;2023-02-27T15:50:00;17.50;;;9.90;;
46054;SDS011;31788;6.954;-71.872;2023-02-27T15:52:52;19.55;;;10.20;;
46054;SDS011;31788;6.954;-71.872;2023-02-27T15:55:28;15.50;;;9.50;;
46054;SDS011;31788;6.954;-71.872;2023-02-27T15:57:58;17.92;;;9.27;;
46054;SDS011;31788;6.954;-71.872;2023-02-27T16:00:26;15.38;;;8.90;;
46054;SDS011;31788;6.954;-71.872;2023-02-27T16:02:55;14.35;;;9.45;;
46054;SDS011;31788;6.954;-71.872;2023-02-27T16:05:32;13.25;;;8.93;;
46054;SDS011;31788;6.954;-71.872;2023-02-27T16:08:05;13.73;;;9.38;;
46054;SDS011;31788;6.954;-71.872;2023-02-27T16:10:42;13.07;;;9.23;;
46054;SDS011;31788;6.954;-71.872;2023-02-27T16:16:00;13.00;;;8.80;;
46054;SDS011;31788;6.954;-71.872;2023-02-27T16:18:33;13.75;;;9.23;;
46054;SDS011;31788;6.954;-71.872;2023-02-27T16:23:40;14.38;;;9.27;;
46054;SDS011;31788;6.954;-71.872;2023-02-27T16:29:01;11.75;;;9.43;;
46054;SDS011;31788;6.954;-71.872;2023-02-27T16:31:50;13.70;;;10.10;;
46054;SDS011;31788;6.954;-71.872;2023-02-27T16:37:00;12.15;;;9.63;;
46054;SDS011;31788;6.954;-71.872;2023-02-27T16:39:29;13.98;;;9.82;;
46054;SDS011;31788;6.954;-71.872;2023-02-27T16:41:57;15.17;;;10.30;;
46054;SDS011;31788;6.954;-71.872;2023-02-27T16:44:25;13.90;;;10.25;;
46054;SDS011;31788;6.954;-71.872;2023-02-27T16:46:52;16.52;;;9.80;;
46054;SDS011;31788;6.954;-71.872;2023-02-27T16:49:24;12.98;;;10.50;;
46054;SDS011;31788;6.954;-71.872;2023-02-27T16:51:53;13.32;;;9.95;;
46054;SDS011;31788;6.954;-71.872;2023-02-27T16:54:20;16.40;;;10.02;;
46054;SDS011;31788;6.954;-71.872;2023-02-27T16:56:48;12.50;;;9.57;;
46054;SDS011;31788;6.954;-71.872;2023-02-27T16:59:36;13.40;;;9.27;;
46054;SDS011;31788;6.954;-71.872;2023-02-27T17:05:26;15.32;;;10.15;;
46054;SDS011;31788;6.954;-71.872;2023-02-27T17:07:53;15.00;;;9.55;;
46054;SDS011;31788;6.954;-71.872;2023-02-27T17:10:20;12.47;;;9.53;;
46054;SDS011;31788;6.954;-71.872;2023-02-27T17:12:48;12.38;;;9.65;;
46054;SDS011;31788;6.954;-71.872;2023-02-27T17:15:15;12.75;;;9.63;;
46054;SDS011;31788;6.954;-71.872;2023-02-27T17:17:43;13.52;;;9.73;;
46054;SDS011;31788;6.954;-71.872;2023-02-27T17:20:10;13.10;;;10.07;;
46054;SDS011;31788;6.954;-71.872;2023-02-27T17:22:39;14.07;;;9.95;;
46054;SDS011;31788;6.954;-71.872;2023-02-27T17:25:07;14.10;;;9.70;;
46054;SDS011;31788;6.954;-71.872;2023-02-27T17:27:35;12.95;;;9.63;;
46054;SDS011;31788;6.954;-71.872;2023-02-27T17:30:02;12.80;;;9.70;;
46054;SDS011;31788;6.954;-71.872;2023-02-27T17:32:31;14.30;;;9.80;;
46054;SDS011;31788;6.954;-71.872;2023-02-27T17:34:59;13.43;;;10.32;;
46054;SDS011;31788;6.954;-71.872;2023-02-27T17:37:26;13.23;;;10.13;;
46054;SDS011;31788;6.954;-71.872;2023-02-27T17:39:53;14.10;;;10.70;;
46054;SDS011;31788;6.954;-71.872;2023-02-27T17:42:19;12.82;;;10.35;;
46054;SDS011;31788;6.954;-71.872;2023-02-27T17:44:50;12.82;;;9.65;;
46054;SDS011;31788;6.954;-71.872;2023-02-27T17:47:17;13.30;;;9.70;;
46054;SDS011;31788;6.954;-71.872;2023-02-27T17:49:43;13.88;;;10.20;;
46054;SDS011;31788;6.954;-71.872;2023-02-27T17:52:10;16.38;;;10.30;;
46054;SDS011;31788;6.954;-71.872;2023-02-27T17:54:37;12.82;;;9.80;;
46054;SDS011;31788;6.954;-71.872;2023-02-27T17:57:04;16.55;;;10.40;;
46054;SDS011;31788;6.954;-71.872;2023-02-27T17:59:31;12.15;;;9.50;;
46054;SDS011;31788;6.954;-71.872;2023-02-27T18:01:57;13.70;;;9.90;;
46054;SDS011;31788;6.954;-71.872;2023-02-27T18:04:24;13.48;;;10.25;;
46054;SDS011;31788;6.954;-71.872;2023-02-27T18:06:51;15.27;;;10.20;;
46054;SDS011;31788;6.954;-71.872;2023-02-27T18:09:19;13.73;;;10.20;;
46054;SDS011;31788;6.954;-71.872;2023-02-27T18:11:46;14.35;;;10.10;;
46054;SDS011;31788;6.954;-71.872;2023-02-27T18:14:14;12.90;;;9.68;;
46054;SDS011;31788;6.954;-71.872;2023-02-27T18:16:40;11.23;;;9.88;;
46054;SDS011;31788;6.954;-71.872;2023-02-27T18:19:08;13.88;;;9.55;;
46054;SDS011;31788;6.954;-71.872;2023-02-27T18:21:40;17.08;;;10.60;;
46054;SDS011;31788;6.954;-71.872;2023-02-27T18:24:07;14.93;;;9.70;;